Time;durP1;ratioP1;P1;durP2;ratioP2;P2;SDS_P1;SDS_P2;PMS_P1;PMS_P2;Temp;Humidity;BMP_temperature;BMP_pressure;BME280_temperature;BME280_humidity;BME280_pressure;Samples;Min_cycle;Max_cycle;Signal;HPM_P1;HPM_P2
2023/05/31 00:02:49;;;;;;;8.40;4.82;;;;;;;17.03;100.00;100568.25;5586145;31;33599;-68
2023/05/31 00:05:56;;;;;;;7.25;5.00;;;;;;;17.01;100.00;100572.16;5585990;31;33848;-69
2023/05/31 00:09:03;;;;;;;9.13;5.40;;;;;;;16.92;100.00;100577.72;5586052;31;34502;-69
2023/05/31 00:12:07;;;;;;;7.22;5.05;;;;;;;16.94;100.00;100572.97;5585937;31;34012;-69
2023/05/31 00:15:13;;;;;;;8.27;4.80;;;;;;;16.86;100.00;100577.69;5585865;31;33692;-68
2023/05/31 00:18:18;;;;;;;10.48;4.60;;;;;;;16.87;100.00;100565.97;5585885;31;33632;-68
2023/05/31 00:21:25;;;;;;;12.65;4.87;;;;;;;16.95;100.00;100571.12;5585833;31;33594;-69
2023/05/31 00:24:29;;;;;;;9.93;4.68;;;;;;;16.98;100.00;100573.41;5585743;31;35019;-68
2023/05/31 00:27:36;;;;;;;9.27;4.87;;;;;;;16.97;100.00;100574.44;5585697;31;33825;-67
2023/05/31 00:30:42;;;;;;;11.25;4.95;;;;;;;17.01;100.00;100574.84;5585562;31;33678;-68
2023/05/31 00:33:49;;;;;;;11.25;5.10;;;;;;;16.99;100.00;100580.44;5587383;31;33845;-67
2023/05/31 00:36:54;;;;;;;9.63;4.82;;;;;;;16.96;100.00;100578.12;5588147;31;34373;-68
2023/05/31 00:40:01;;;;;;;8.65;4.62;;;;;;;16.96;100.00;100578.12;5588099;31;33495;-68
2023/05/31 00:43:06;;;;;;;10.82;4.62;;;;;;;16.97;100.00;100584.31;5588063;31;34369;-70
2023/05/31 00:46:25;;;;;;;11.52;4.55;;;;;;;17.03;100.00;100576.31;5588547;31;33654;-68
2023/05/31 00:49:31;;;;;;;9.63;4.68;;;;;;;17.00;100.00;100589.25;5588007;31;33893;-68
2023/05/31 00:52:36;;;;;;;8.55;4.82;;;;;;;16.98;100.00;100588.66;5588142;31;34316;-67
2023/05/31 00:55:42;;;;;;;9.65;4.45;;;;;;;16.98;100.00;100592.16;5587816;31;34511;-68
2023/05/31 00:58:52;;;;;;;8.88;4.47;;;;;;;17.00;100.00;100586.59;5587907;31;34784;-68
2023/05/31 01:02:01;;;;;;;11.13;4.60;;;;;;;17.00;100.00;100595.44;5588051;31;34261;-68
2023/05/31 01:05:07;;;;;;;6.60;4.45;;;;;;;16.96;100.00;100583.50;5587957;31;34563;-68
2023/05/31 01:08:16;;;;;;;8.40;4.55;;;;;;;16.94;100.00;100585.56;5587078;31;33597;-68
2023/05/31 01:12:00;;;;;;;8.57;5.05;;;;;;;16.95;100.00;100579.97;5587897;31;33511;-68
2023/05/31 01:15:07;;;;;;;10.95;4.50;;;;;;;16.94;100.00;100572.97;5587875;31;33749;-68
2023/05/31 01:18:32;;;;;;;8.48;4.47;;;;;;;16.94;100.00;100572.16;5587740;31;33696;-68
2023/05/31 01:22:14;;;;;;;11.23;4.18;;;;;;;16.94;100.00;100580.22;5586878;31;34446;-68
2023/05/31 01:25:40;;;;;;;10.13;4.45;;;;;;;16.95;100.00;100571.12;5579514;31;34382;-68
2023/05/31 01:28:56;;;;;;;8.57;4.40;;;;;;;16.97;100.00;100577.09;5587889;31;33903;-68
2023/05/31 01:32:03;;;;;;;8.63;4.55;;;;;;;16.99;100.00;100579.59;5587674;31;33730;-67
2023/05/31 01:35:11;;;;;;;8.73;3.92;;;;;;;17.02;100.00;100587.22;5586832;31;34492;-68
2023/05/31 01:38:20;;;;;;;8.25;4.40;;;;;;;17.05;100.00;100573.41;5587681;31;33763;-68
2023/05/31 01:41:28;;;;;;;11.52;4.47;;;;;;;17.06;100.00;100575.06;5587609;31;34554;-68
2023/05/31 01:44:34;;;;;;;6.78;4.12;;;;;;;17.05;100.00;100576.91;5587257;31;34476;-68
2023/05/31 01:47:45;;;;;;;8.68;4.03;;;;;;;17.03;100.00;100583.50;5587616;31;34346;-68
2023/05/31 01:50:53;;;;;;;9.77;3.90;;;;;;;17.01;100.00;100581.03;5587428;31;34089;-68
2023/05/31 01:54:00;;;;;;;12.30;4.30;;;;;;;17.02;100.00;100576.50;5587607;31;33511;-68
2023/05/31 01:57:10;;;;;;;6.20;3.87;;;;;;;17.03;100.00;100586.19;5587446;31;33790;-68
2023/05/31 02:00:17;;;;;;;10.27;3.83;;;;;;;17.02;100.00;100581.84;5586616;31;33818;-68
2023/05/31 02:03:23;;;;;;;8.30;4.40;;;;;;;17.06;100.00;100580.41;5587440;31;33805;-68
2023/05/31 02:06:30;;;;;;;9.07;4.03;;;;;;;17.06;100.00;100589.28;5587436;31;34453;-68
2023/05/31 02:09:37;;;;;;;7.00;3.87;;;;;;;17.07;100.00;100584.75;5586609;31;33744;-68
2023/05/31 02:12:44;;;;;;;8.80;4.12;;;;;;;17.02;100.00;100581.84;5587221;31;33804;-67
2023/05/31 02:15:52;;;;;;;8.93;3.80;;;;;;;17.07;100.00;100592.78;5587368;31;33553;-68
2023/05/31 02:19:00;;;;;;;7.37;4.05;;;;;;;17.04;100.00;100591.34;5587273;31;33709;-68
2023/05/31 02:22:07;;;;;;;6.30;4.20;;;;;;;17.02;100.00;100590.72;5587352;31;33780;-68
2023/05/31 02:25:15;;;;;;;10.30;3.95;;;;;;;17.04;100.00;100593.22;5587246;31;33824;-68
2023/05/31 02:28:20;;;;;;;10.13;4.55;;;;;;;17.06;100.00;100600.00;5587238;31;34475;-68
2023/05/31 02:31:28;;;;;;;10.57;3.92;;;;;;;17.05;100.00;100593.00;5587229;31;34364;-68
2023/05/31 02:34:36;;;;;;;10.38;4.18;;;;;;;17.05;100.00;100590.31;5587258;31;33627;-68
2023/05/31 02:37:46;;;;;;;9.35;3.87;;;;;;;17.02;100.00;100595.25;5587142;31;33689;-68
2023/05/31 02:40:52;;;;;;;11.70;3.83;;;;;;;17.02;100.00;100600.63;5587197;31;34323;-68
2023/05/31 02:43:59;;;;;;;7.22;3.62;;;;;;;17.01;100.00;100604.31;5587158;31;34217;-68
2023/05/31 02:47:06;;;;;;;8.05;3.75;;;;;;;16.99;100.00;100601.88;5587178;31;33469;-68
2023/05/31 02:50:14;;;;;;;9.57;3.92;;;;;;;17.01;100.00;100604.31;5586957;31;35137;-68
2023/05/31 02:53:20;;;;;;;11.27;4.10;;;;;;;16.99;100.00;100604.53;5587025;31;33832;-68
2023/05/31 02:56:27;;;;;;;11.20;4.53;;;;;;;16.97;100.00;100597.72;5586352;31;33716;-68
2023/05/31 02:59:37;;;;;;;8.40;3.70;;;;;;;16.93;100.00;100600.81;5587078;31;33468;-68
2023/05/31 03:02:45;;;;;;;8.20;4.05;;;;;;;16.93;100.00;100600.00;5586880;31;34502;-68
2023/05/31 03:05:54;;;;;;;13.02;4.18;;;;;;;16.92;100.00;100601.84;5586983;31;34411;-68
2023/05/31 03:09:00;;;;;;;9.25;3.67;;;;;;;16.93;100.00;100606.19;5586928;31;33824;-68
2023/05/31 03:12:07;;;;;;;8.82;3.80;;;;;;;16.93;100.00;100608.03;5586857;31;33846;-68
2023/05/31 03:15:15;;;;;;;7.82;3.58;;;;;;;16.95;100.00;100614.00;5586605;31;33648;-68
2023/05/31 03:18:20;;;;;;;11.12;4.28;;;;;;;16.98;100.00;100604.75;5586788;31;33701;-68
2023/05/31 03:21:28;;;;;;;10.20;4.05;;;;;;;16.98;100.00;100613.63;5586719;31;34555;-67
2023/05/31 03:24:35;;;;;;;11.80;3.83;;;;;;;17.01;100.00;100602.47;5586725;31;35159;-68
2023/05/31 03:27:42;;;;;;;8.73;3.78;;;;;;;17.04;100.00;100618.12;5585817;31;33610;-68
2023/05/31 03:30:49;;;;;;;10.02;4.05;;;;;;;17.10;100.00;100613.81;5586617;31;33674;-67
2023/05/31 03:33:57;;;;;;;8.48;3.60;;;;;;;17.13;100.00;100611.56;5585841;31;34333;-67
2023/05/31 03:37:04;;;;;;;9.45;3.72;;;;;;;17.17;100.00;100626.22;5586696;31;33554;-67
2023/05/31 03:40:10;;;;;;;14.57;4.43;;;;;;;17.17;100.00;100620.84;5586377;31;34634;-68
2023/05/31 03:43:17;;;;;;;10.75;4.57;;;;;;;17.17;100.00;100625.38;5586218;31;33609;-68
2023/05/31 03:46:24;;;;;;;7.60;3.87;;;;;;;17.21;99.89;100626.63;5586231;31;34398;-68
2023/05/31 03:49:31;;;;;;;11.12;3.78;;;;;;;17.20;98.37;100620.44;5586568;31;33627;-68
2023/05/31 03:52:40;;;;;;;9.18;3.67;;;;;;;17.21;98.23;100622.09;5586293;31;34182;-67
2023/05/31 03:55:46;;;;;;;11.82;3.72;;;;;;;17.24;97.87;100631.56;5586188;31;33800;-68
2023/05/31 03:58:55;;;;;;;7.12;3.67;;;;;;;17.29;97.55;100626.41;5586303;31;33766;-68
2023/05/31 04:02:00;;;;;;;8.25;3.50;;;;;;;17.28;97.10;100633.63;5572515;31;33668;-72
2023/05/31 04:05:07;;;;;;;10.98;3.95;;;;;;;17.36;95.76;100633.44;5585293;31;33766;-65
2023/05/31 04:08:15;;;;;;;8.10;3.83;;;;;;;17.45;95.73;100635.91;5588384;31;33789;-66
2023/05/31 04:11:23;;;;;;;11.48;3.50;;;;;;;17.60;93.78;100637.41;5588336;31;34024;-66
2023/05/31 04:14:28;;;;;;;14.07;3.80;;;;;;;17.56;92.46;100638.81;5588195;31;33845;-67
2023/05/31 04:17:37;;;;;;;9.10;3.70;;;;;;;17.61;94.24;100647.09;5588022;31;34227;-66
2023/05/31 04:20:44;;;;;;;9.65;3.30;;;;;;;17.64;92.32;100648.53;5588367;31;33704;-67
2023/05/31 04:23:52;;;;;;;6.95;3.65;;;;;;;17.68;92.32;100644.41;5588512;31;34592;-67
2023/05/31 04:26:59;;;;;;;11.68;3.95;;;;;;;17.76;92.09;100647.72;5588321;31;35266;-66
2023/05/31 04:30:06;;;;;;;9.05;3.75;;;;;;;17.80;93.22;100656.16;5587023;31;33701;-66
2023/05/31 04:33:12;;;;;;;11.60;4.47;;;;;;;17.74;92.79;100657.00;5588129;31;34571;-67
2023/05/31 04:36:18;;;;;;;9.90;3.60;;;;;;;17.80;92.36;100664.22;5587669;31;33531;-66
2023/05/31 04:39:24;;;;;;;7.45;3.42;;;;;;;17.78;92.33;100664.41;5588101;31;33680;-66
2023/05/31 04:42:31;;;;;;;8.73;3.65;;;;;;;17.84;93.00;100656.56;5588029;31;33855;-66
2023/05/31 04:45:38;;;;;;;9.52;3.92;;;;;;;17.90;93.36;100653.87;5583378;31;34772;-65
2023/05/31 04:48:45;;;;;;;9.45;3.45;;;;;;;17.91;92.21;100660.09;5567800;32;33802;-66
2023/05/31 04:51:50;;;;;;;12.40;3.80;;;;;;;17.83;92.65;100663.78;5568047;32;34103;-66
2023/05/31 04:54:57;;;;;;;7.18;3.20;;;;;;;17.86;91.68;100665.25;5584232;31;33814;-66
2023/05/31 04:58:04;;;;;;;10.95;4.22;;;;;;;17.82;89.77;100672.88;5591416;31;34556;-66
2023/05/31 05:01:12;;;;;;;13.23;3.95;;;;;;;17.83;91.54;100671.84;5607659;31;33643;-66
2023/05/31 05:04:17;;;;;;;7.03;3.33;;;;;;;17.81;90.96;100674.72;5606863;31;33818;-66
2023/05/31 05:07:22;;;;;;;8.57;3.65;;;;;;;17.84;90.02;100670.81;5607512;31;34558;-66
2023/05/31 05:10:25;;;;;;;8.20;3.40;;;;;;;17.96;90.14;100676.41;5607353;31;33500;-66
2023/05/31 05:13:30;;;;;;;8.15;3.53;;;;;;;18.06;89.38;100679.44;5605965;31;34031;-66
2023/05/31 05:16:43;;;;;;;16.87;3.65;;;;;;;18.21;87.34;100680.03;5567618;32;33613;-65
2023/05/31 05:20:10;;;;;;;13.70;3.92;;;;;;;18.25;87.48;100683.94;5576486;31;32922;-66
2023/05/31 05:23:35;;;;;;;12.80;3.47;;;;;;;18.41;85.71;100683.50;5567503;32;34683;-66
2023/05/31 05:26:49;;;;;;;10.98;3.50;;;;;;;18.60;84.44;100671.91;5578780;31;34255;-66
2023/05/31 05:30:09;;;;;;;11.43;3.65;;;;;;;18.57;83.82;100674.19;5566436;31;34204;-65
2023/05/31 05:33:30;;;;;;;11.98;3.70;;;;;;;18.53;83.27;100676.47;5567784;32;34028;-67
2023/05/31 05:36:49;;;;;;;10.23;3.65;;;;;;;18.27;84.50;100676.53;5567388;32;34132;-67
2023/05/31 05:40:11;;;;;;;8.60;3.53;;;;;;;18.36;85.44;100677.94;5585151;31;35112;-68
2023/05/31 05:43:35;;;;;;;10.57;3.78;;;;;;;18.38;85.22;100686.62;5576329;31;34133;-68
2023/05/31 05:46:48;;;;;;;9.32;3.50;;;;;;;18.39;85.20;100690.12;5586411;31;34162;-67
2023/05/31 05:50:05;;;;;;;10.05;3.90;;;;;;;18.37;85.62;100687.66;5585569;31;34493;-67
2023/05/31 05:53:26;;;;;;;15.80;3.87;;;;;;;18.58;83.57;100687.41;5585441;31;34750;-66
2023/05/31 05:56:47;;;;;;;12.75;3.83;;;;;;;18.73;83.72;100689.84;5585631;31;33782;-67
2023/05/31 06:00:14;;;;;;;9.57;3.62;;;;;;;18.89;81.46;100692.03;5586565;31;34685;-67
2023/05/31 06:03:43;;;;;;;12.50;3.67;;;;;;;19.19;77.70;100694.97;5566760;31;34095;-68
2023/05/31 06:07:07;;;;;;;9.30;3.53;;;;;;;19.31;76.79;100695.94;5586161;31;33743;-67
2023/05/31 06:10:14;;;;;;;12.60;4.03;;;;;;;19.55;74.86;100694.34;5570674;31;34498;-67
2023/05/31 06:13:29;;;;;;;16.77;3.85;;;;;;;19.72;73.26;100689.22;5566764;32;35091;-69
2023/05/31 06:16:37;;;;;;;10.25;3.42;;;;;;;19.61;74.30;100693.47;5570194;31;35099;-67
2023/05/31 06:19:45;;;;;;;13.00;3.55;;;;;;;19.87;72.51;100705.88;5582643;31;34087;-66
2023/05/31 06:23:14;;;;;;;11.63;3.67;;;;;;;19.81;73.07;100704.87;5564646;31;34096;-68
2023/05/31 06:26:38;;;;;;;8.95;3.35;;;;;;;19.96;74.71;100701.87;5578436;31;33405;-67
2023/05/31 06:30:03;;;;;;;10.45;3.53;;;;;;;20.06;71.95;100706.75;5588042;31;34107;-67
2023/05/31 06:33:26;;;;;;;15.43;3.37;;;;;;;20.27;71.02;100700.94;5569230;31;34854;-68
2023/05/31 06:36:47;;;;;;;13.20;3.65;;;;;;;20.30;72.09;100703.19;5583826;31;34020;-70
2023/05/31 06:40:04;;;;;;;8.95;3.30;;;;;;;20.66;71.02;100705.94;5583653;31;34340;-69
2023/05/31 06:43:26;;;;;;;8.30;3.20;;;;;;;20.48;68.96;100707.81;5546831;31;34613;-68
2023/05/31 06:46:35;;;;;;;10.07;3.50;;;;;;;20.35;69.75;100704.19;5580533;31;32481;-68
2023/05/31 06:49:55;;;;;;;11.20;3.70;;;;;;;20.49;68.61;100701.34;5580820;31;34476;-66
2023/05/31 06:53:16;;;;;;;10.13;3.67;;;;;;;20.74;69.52;100705.63;5580836;31;34465;-66
2023/05/31 06:56:31;;;;;;;15.02;3.87;;;;;;;20.71;68.97;100708.78;5570717;31;33388;-66
2023/05/31 06:59:45;;;;;;;9.57;3.00;;;;;;;20.63;69.48;100709.06;5579534;31;33341;-68
2023/05/31 07:02:56;;;;;;;11.27;3.55;;;;;;;21.16;66.98;100709.22;5585672;31;34701;-68
2023/05/31 07:06:10;;;;;;;9.90;3.80;;;;;;;21.09;68.04;100707.66;5584708;31;34219;-68
2023/05/31 07:09:19;;;;;;;10.67;3.40;;;;;;;21.16;65.72;100709.22;5586328;31;33507;-68
2023/05/31 07:12:33;;;;;;;9.95;3.50;;;;;;;21.39;66.19;100711.22;5584785;31;34277;-68
2023/05/31 07:16:00;;;;;;;9.48;3.42;;;;;;;21.67;65.73;100708.69;5582324;31;34536;-68
2023/05/31 07:19:21;;;;;;;8.93;3.15;;;;;;;21.64;63.72;100705.59;5542182;31;34271;-69
2023/05/31 07:22:30;;;;;;;18.20;4.12;;;;;;;21.99;58.91;100698.41;5565829;32;33872;-68
2023/05/31 07:25:43;;;;;;;13.50;3.45;;;;;;;22.38;59.05;100714.94;5569381;31;34704;-67
2023/05/31 07:29:02;;;;;;;11.33;3.37;;;;;;;22.36;54.13;100715.19;5585339;31;34186;-67
2023/05/31 07:32:21;;;;;;;9.10;3.35;;;;;;;23.14;52.71;100717.34;5584442;31;34239;-68
2023/05/31 07:35:53;;;;;;;23.80;3.75;;;;;;;23.43;50.30;100715.44;5586176;31;34147;-67
2023/05/31 07:39:10;;;;;;;16.23;3.42;;;;;;;23.24;49.77;100709.41;5585558;31;33673;-68
2023/05/31 07:42:30;;;;;;;6.05;2.80;;;;;;;23.39;48.57;100715.09;5585213;31;34067;-70
2023/05/31 07:45:43;;;;;;;10.77;3.00;;;;;;;24.58;46.33;100718.37;5585496;31;33512;-71
2023/05/31 07:49:06;;;;;;;7.72;3.00;;;;;;;25.32;45.02;100713.25;5579831;31;168362;-69
2023/05/31 07:52:22;;;;;;;12.55;3.15;;;;;;;25.21;43.75;100713.44;5585663;31;34906;-69
2023/05/31 07:55:44;;;;;;;7.62;3.00;;;;;;;24.68;45.42;100712.25;5585131;31;34244;-70
2023/05/31 07:58:54;;;;;;;6.95;3.00;;;;;;;25.99;43.35;100712.81;5578168;31;33483;-70
2023/05/31 08:02:01;;;;;;;72.43;4.60;;;;;;;25.74;43.54;100702.56;5585138;31;34433;-70
2023/05/31 08:05:07;;;;;;;7.03;3.00;;;;;;;26.57;40.67;100708.28;5585121;31;34563;-70
2023/05/31 08:08:42;;;;;;;8.20;2.78;;;;;;;25.66;41.92;100711.16;5578647;31;33839;-70
2023/05/31 08:12:04;;;;;;;9.10;2.97;;;;;;;25.76;42.62;100705.81;5581071;31;34048;-70
2023/05/31 08:15:15;;;;;;;9.68;2.62;;;;;;;25.85;42.56;100722.47;5579615;31;34557;-70
2023/05/31 08:18:36;;;;;;;9.90;3.08;;;;;;;26.33;40.75;100705.16;5584682;31;34941;-69
2023/05/31 08:21:58;;;;;;;16.77;3.33;;;;;;;26.71;40.11;100707.50;5577932;31;33091;-68
2023/05/31 08:25:19;;;;;;;7.82;2.67;;;;;;;27.16;39.65;100706.84;5582096;31;34264;-68
2023/05/31 08:28:37;;;;;;;10.35;2.90;;;;;;;25.37;42.07;100712.50;5583469;31;34006;-70
2023/05/31 08:31:59;;;;;;;8.93;3.15;;;;;;;26.25;40.47;100703.75;5561979;31;34116;-69
2023/05/31 08:35:13;;;;;;;11.82;2.85;;;;;;;26.34;40.31;100712.22;5565171;31;33910;-69
2023/05/31 08:38:34;;;;;;;7.62;2.78;;;;;;;26.51;39.98;100709.31;5564247;32;34771;-70
2023/05/31 08:42:12;;;;;;;13.32;3.15;;;;;;;26.35;40.31;100716.56;5565364;32;34629;-69
2023/05/31 08:45:29;;;;;;;7.20;2.70;;;;;;;28.07;37.87;100720.56;5571110;31;34809;-69
2023/05/31 08:49:05;;;;;;;10.32;3.10;;;;;;;29.64;35.34;100717.12;5577082;31;34136;-69
2023/05/31 08:52:25;;;;;;;14.32;2.92;;;;;;;28.06;37.38;100712.63;5564609;31;33288;-68
2023/05/31 08:55:53;;;;;;;7.03;2.58;;;;;;;28.86;36.45;100705.31;5585822;31;35234;-69
2023/05/31 08:58:58;;;;;;;9.68;2.92;;;;;;;27.44;37.71;100708.28;5584180;31;33619;-69
2023/05/31 09:02:05;;;;;;;10.65;3.33;;;;;;;28.55;37.43;100710.09;5567562;32;33615;-70
2023/05/31 09:05:13;;;;;;;7.70;3.12;;;;;;;27.13;38.96;100706.56;5567923;32;33797;-69
2023/05/31 09:08:24;;;;;;;8.35;2.83;;;;;;;26.80;39.89;100703.19;5567614;31;33337;-71
2023/05/31 09:11:28;;;;;;;23.45;3.55;;;;;;;27.02;39.19;100696.72;5572402;31;33781;-69
2023/05/31 09:14:32;;;;;;;7.65;2.80;;;;;;;29.52;37.12;100705.78;5572613;31;33757;-69
2023/05/31 09:17:35;;;;;;;6.37;2.58;;;;;;;30.64;33.73;100695.34;5587090;31;34561;-70
2023/05/31 09:20:39;;;;;;;10.50;3.37;;;;;;;31.69;32.76;100693.31;5576556;31;33537;-70
2023/05/31 09:23:58;;;;;;;6.07;2.95;;;;;;;32.39;31.62;100704.16;5578555;31;33865;-70
2023/05/31 09:27:03;;;;;;;10.57;3.00;;;;;;;31.35;32.39;100701.81;5586937;31;33836;-70
2023/05/31 09:30:08;;;;;;;10.38;2.70;;;;;;;31.87;32.92;100701.50;5585382;31;35070;-69
2023/05/31 09:33:13;;;;;;;8.10;3.15;;;;;;;32.20;31.56;100704.22;5578462;31;34598;-68
2023/05/31 09:36:25;;;;;;;7.50;3.20;;;;;;;32.91;30.78;100702.78;5568043;32;33927;-69
2023/05/31 09:39:30;;;;;;;17.77;2.95;;;;;;;30.40;33.32;100686.34;5571058;31;34543;-69
2023/05/31 09:42:33;;;;;;;24.75;3.40;;;;;;;32.64;31.12;100693.47;5568716;31;34012;-69
2023/05/31 09:45:38;;;;;;;5.53;2.95;;;;;;;32.70;30.12;100688.69;5569987;32;34576;-70
2023/05/31 09:48:44;;;;;;;8.98;2.83;;;;;;;31.81;31.61;100686.22;5571506;32;34997;-70
2023/05/31 09:51:52;;;;;;;9.02;2.85;;;;;;;31.32;32.33;100689.47;5569125;32;34283;-71
2023/05/31 09:54:57;;;;;;;5.93;3.00;;;;;;;28.65;35.57;100692.84;5556771;32;34602;-70
2023/05/31 09:58:03;;;;;;;10.38;3.10;;;;;;;30.23;34.48;100680.50;5566719;32;33950;-70
2023/05/31 10:01:07;;;;;;;6.18;3.00;;;;;;;31.90;30.91;100678.13;5567056;32;33954;-69
2023/05/31 10:04:12;;;;;;;10.35;2.95;;;;;;;34.47;28.31;100681.50;5570086;32;34242;-71
2023/05/31 10:07:18;;;;;;;6.30;2.70;;;;;;;33.97;28.51;100679.03;5567620;32;33962;-70
2023/05/31 10:10:22;;;;;;;10.88;3.03;;;;;;;32.91;30.23;100675.31;5567287;32;33822;-70
2023/05/31 10:13:33;;;;;;;6.00;2.97;;;;;;;31.00;32.77;100670.22;5567478;32;33853;-70
2023/05/31 10:16:49;;;;;;;5.62;3.03;;;;;;;32.11;30.81;100681.34;5567646;32;34564;-70
2023/05/31 10:20:00;;;;;;;8.48;2.87;;;;;;;34.71;27.90;100672.88;5566809;32;33807;-70
2023/05/31 10:23:09;;;;;;;5.18;2.80;;;;;;;33.33;28.95;100674.87;5566754;32;33775;-70
2023/05/31 10:26:15;;;;;;;6.70;3.10;;;;;;;33.69;28.19;100682.28;5574853;31;33611;-70
2023/05/31 10:29:52;;;;;;;6.32;2.85;;;;;;;36.41;25.44;100658.31;5585819;31;33706;-71
2023/05/31 10:33:03;;;;;;;9.00;3.10;;;;;;;36.72;24.93;100663.53;5575554;31;33565;-72
2023/05/31 10:36:07;;;;;;;11.80;3.00;;;;;;;34.03;28.00;100672.25;5569349;31;33511;-71
2023/05/31 10:39:34;;;;;;;9.43;3.12;;;;;;;33.90;28.18;100667.66;5571268;31;33691;-71
2023/05/31 10:42:43;;;;;;;9.95;3.37;;;;;;;34.44;28.02;100673.91;5581598;31;33811;-71
2023/05/31 10:46:09;;;;;;;9.57;2.85;;;;;;;33.66;28.16;100658.09;5585578;31;33488;-71
2023/05/31 10:49:15;;;;;;;7.55;3.10;;;;;;;34.09;28.17;100650.09;5575672;31;33700;-71
2023/05/31 10:52:21;;;;;;;10.40;3.10;;;;;;;37.39;25.30;100655.00;5576451;31;34388;-69
2023/05/31 10:55:28;;;;;;;6.70;3.03;;;;;;;32.56;28.45;100655.72;5585051;31;33567;-70
2023/05/31 10:58:38;;;;;;;8.18;3.20;;;;;;;33.48;29.08;100654.44;5585669;31;34617;-69
2023/05/31 11:01:42;;;;;;;6.70;2.92;;;;;;;33.69;28.50;100652.84;5586450;31;33879;-71
2023/05/31 11:04:45;;;;;;;10.95;2.83;;;;;;;36.95;24.50;100646.25;5586606;31;33821;-70
2023/05/31 11:07:51;;;;;;;13.82;3.20;;;;;;;37.59;23.69;100656.94;5586114;31;33980;-69
2023/05/31 11:11:46;;;;;;;4.68;2.90;;;;;;;34.59;27.54;100648.66;5584663;31;33869;-69
2023/05/31 11:15:00;;;;;;;8.85;2.83;;;;;;;36.36;24.85;100644.72;5541278;31;33965;-70
2023/05/31 11:18:07;;;;;;;12.88;3.70;;;;;;;30.88;31.19;100626.84;5574549;31;33653;-70
2023/05/31 11:21:45;;;;;;;17.17;4.10;;;;;;;32.46;29.62;100630.37;5575888;31;35302;-69
2023/05/31 11:24:52;;;;;;;9.77;3.40;;;;;;;29.62;32.90;100625.56;5577261;31;33681;-69
2023/05/31 11:28:05;;;;;;;7.62;3.08;;;;;;;28.36;34.96;100622.56;5575683;31;34419;-69
2023/05/31 11:31:14;;;;;;;11.80;3.70;;;;;;;27.91;36.75;100612.56;5579530;31;34439;-69
2023/05/31 11:34:20;;;;;;;14.18;3.40;;;;;;;31.11;33.03;100618.84;5574551;31;33541;-70
2023/05/31 11:37:28;;;;;;;7.35;3.10;;;;;;;32.87;30.25;100620.16;5579142;31;34292;-68
2023/05/31 11:40:33;;;;;;;11.77;3.30;;;;;;;30.16;32.33;100611.62;5577610;31;33717;-69
2023/05/31 11:43:37;;;;;;;10.20;3.10;;;;;;;29.48;33.63;100613.69;5585452;31;33765;-69
2023/05/31 11:46:46;;;;;;;9.82;2.97;;;;;;;28.95;34.76;100608.84;5583466;31;34702;-69
2023/05/31 11:49:49;;;;;;;;;;;;;;;27.06;37.55;100594.38;5577207;31;33378;-68
2023/05/31 11:52:58;;;;;;;6.78;3.03;;;;;;;27.61;36.37;100596.28;5586071;31;34153;-69
2023/05/31 11:56:01;;;;;;;4.62;2.83;;;;;;;30.59;33.39;100591.38;5577819;31;34571;-69
2023/05/31 11:59:05;;;;;;;6.97;3.20;;;;;;;33.71;28.22;100600.22;5568045;31;35265;-69
2023/05/31 12:02:10;;;;;;;9.05;3.17;;;;;;;31.82;29.08;100596.50;5566484;31;33846;-68
2023/05/31 12:05:17;;;;;;;10.35;3.75;;;;;;;31.27;30.91;100598.31;5573504;31;34847;-69
2023/05/31 12:08:20;;;;;;;7.75;2.85;;;;;;;27.48;36.34;100602.25;5565494;32;34142;-68
2023/05/31 12:11:23;;;;;;;8.65;3.70;;;;;;;28.45;33.65;100584.56;5565613;31;33752;-69
2023/05/31 12:14:29;;;;;;;8.35;2.97;;;;;;;27.80;35.97;100585.59;5567783;31;33948;-69
2023/05/31 12:17:34;;;;;;;18.67;3.37;;;;;;;28.31;35.96;100581.66;5581152;31;33738;-69
2023/05/31 12:20:38;;;;;;;10.90;3.35;;;;;;;30.03;33.76;100583.03;5584241;31;33735;-69
2023/05/31 12:23:57;;;;;;;6.60;3.33;;;;;;;34.86;27.13;100587.75;5585401;31;34386;-69
2023/05/31 12:27:02;;;;;;;4.53;2.85;;;;;;;38.91;22.31;100593.56;5585228;31;34223;-69
2023/05/31 12:30:06;;;;;;;8.63;3.20;;;;;;;35.57;24.19;100592.84;5586688;31;33778;-69
2023/05/31 12:33:10;;;;;;;7.30;3.30;;;;;;;33.34;27.10;100594.00;5569346;31;33864;-70
2023/05/31 12:36:16;;;;;;;10.98;3.12;;;;;;;34.92;25.11;100577.34;5568402;32;34361;-71
2023/05/31 12:39:27;;;;;;;8.02;3.42;;;;;;;37.33;22.71;100582.44;5567251;32;34478;-69
2023/05/31 12:42:31;;;;;;;8.25;3.30;;;;;;;39.47;20.06;100582.41;5566841;32;33941;-69
2023/05/31 12:45:39;;;;;;;7.10;3.22;;;;;;;38.43;20.22;100572.28;5567779;32;33802;-70
2023/05/31 12:48:49;;;;;;;8.80;3.15;;;;;;;35.33;23.20;100571.34;5567166;32;34819;-69
2023/05/31 12:51:58;;;;;;;8.18;3.40;;;;;;;34.07;23.84;100565.06;5567436;32;33853;-69
2023/05/31 12:55:04;;;;;;;9.90;3.72;;;;;;;36.93;22.67;100559.25;5567556;32;34940;-70
2023/05/31 12:58:08;;;;;;;8.75;3.15;;;;;;;34.43;24.22;100557.38;5565796;32;33677;-70
2023/05/31 13:01:12;;;;;;;6.40;3.28;;;;;;;36.33;21.46;100565.22;5567730;32;34946;-69
2023/05/31 13:04:15;;;;;;;7.00;3.42;;;;;;;36.32;21.86;100558.91;5583782;31;33744;-69
2023/05/31 13:07:19;;;;;;;8.73;3.65;;;;;;;35.59;22.21;100549.16;5587366;31;33926;-69
2023/05/31 13:10:23;;;;;;;8.25;3.25;;;;;;;35.59;21.89;100546.41;5586260;31;33726;-70
2023/05/31 13:13:27;;;;;;;9.70;3.10;;;;;;;37.45;20.99;100548.47;5587391;31;33749;-71
2023/05/31 13:16:32;;;;;;;7.60;3.20;;;;;;;38.11;20.62;100551.88;5584929;31;33730;-69
2023/05/31 13:19:36;;;;;;;5.97;3.10;;;;;;;35.66;21.65;100539.28;5576909;31;34312;-71
2023/05/31 13:22:39;;;;;;;8.10;3.30;;;;;;;38.52;19.07;100536.94;5582323;31;33746;-69
2023/05/31 13:25:43;;;;;;;5.82;3.03;;;;;;;35.84;20.61;100531.69;5567122;32;33796;-69
2023/05/31 13:28:47;;;;;;;7.35;3.20;;;;;;;33.94;23.84;100524.69;5565900;32;33823;-69
2023/05/31 13:31:51;;;;;;;5.50;3.12;;;;;;;34.61;22.77;100518.84;5567424;32;33671;-70
2023/05/31 13:34:55;;;;;;;4.70;3.00;;;;;;;33.66;23.87;100515.03;5567047;32;33723;-70
2023/05/31 13:38:03;;;;;;;6.12;3.20;;;;;;;36.69;21.51;100520.44;5567326;31;34855;-69
2023/05/31 13:41:06;;;;;;;7.68;3.53;;;;;;;36.95;20.32;100519.03;5576034;31;34530;-69
2023/05/31 13:44:15;;;;;;;5.40;3.17;;;;;;;35.11;22.90;100513.59;5585852;31;33891;-70
2023/05/31 13:47:18;;;;;;;5.65;2.85;;;;;;;36.82;20.80;100517.38;5578035;31;33478;-70
2023/05/31 13:50:21;;;;;;;28.73;3.87;;;;;;;37.47;20.96;100521.28;5584406;31;33763;-71
2023/05/31 13:53:25;;;;;;;6.18;3.15;;;;;;;38.04;21.50;100512.06;5583534;31;34677;-70
2023/05/31 13:56:28;;;;;;;7.37;3.37;;;;;;;36.25;21.96;100510.84;5585001;31;33528;-70
2023/05/31 13:59:32;;;;;;;7.70;3.25;;;;;;;35.03;22.69;100504.19;5585807;31;33515;-71
2023/05/31 14:02:35;;;;;;;7.03;3.25;;;;;;;38.06;20.59;100504.22;5583029;31;33735;-71
2023/05/31 14:05:39;;;;;;;5.53;2.95;;;;;;;37.79;20.19;100495.47;5580550;31;33961;-70
2023/05/31 14:08:44;;;;;;;5.82;2.95;;;;;;;36.38;22.26;100496.78;5583170;31;34641;-69
2023/05/31 14:11:48;;;;;;;16.85;3.55;;;;;;;36.45;21.96;100493.47;5582031;31;35239;-70
2023/05/31 14:14:51;;;;;;;9.25;3.20;;;;;;;36.02;22.52;100485.50;5585644;31;34389;-70
2023/05/31 14:17:55;;;;;;;4.18;2.80;;;;;;;36.42;22.13;100483.06;5584348;31;34495;-70
2023/05/31 14:20:59;;;;;;;12.07;3.15;;;;;;;33.52;24.85;100482.13;5580776;31;33636;-69
2023/05/31 14:24:03;;;;;;;8.65;3.37;;;;;;;31.82;26.97;100479.34;5566519;31;33968;-70
2023/05/31 14:27:07;;;;;;;6.12;3.83;;;;;;;31.20;28.01;100475.34;5577676;31;33803;-68
2023/05/31 14:30:10;;;;;;;10.30;3.50;;;;;;;30.16;29.52;100477.53;5583830;31;34778;-69
2023/05/31 14:33:16;;;;;;;9.40;3.20;;;;;;;30.21;29.63;100477.44;5575445;31;33787;-69
2023/05/31 14:36:23;;;;;;;10.07;3.70;;;;;;;29.90;29.63;100474.31;5567591;31;34739;-69
2023/05/31 14:39:30;;;;;;;6.68;3.62;;;;;;;30.96;28.25;100477.37;5573532;31;34354;-67